Time;durP1;ratioP1;P1;durP2;ratioP2;P2;SDS_P1;SDS_P2;PMS_P1;PMS_P2;Temp;Humidity;BMP_temperature;BMP_pressure;BME280_temperature;BME280_humidity;BME280_pressure;Samples;Min_cycle;Max_cycle;Signal;HPM_P1;HPM_P2
2022/10/10 00:02:25;;;;;;;10.85;2.63;;;;;;;16.85;100.00;100261.19;6263336;22;20020;-91
2022/10/10 00:04:52;;;;;;;11.02;2.63;;;;;;;16.63;100.00;100160.47;6235304;22;20484;-90
2022/10/10 00:07:19;;;;;;;9.00;2.80;;;;;;;16.80;100.00;100265.63;6237298;22;20015;-90
2022/10/10 00:09:45;;;;;;;12.85;2.90;;;;;;;16.95;100.00;100270.81;6235508;22;20014;-91
2022/10/10 00:12:11;;;;;;;8.02;2.78;;;;;;;18.14;100.00;100476.97;6263289;22;20016;-90
2022/10/10 00:14:36;;;;;;;9.73;3.53;;;;;;;19.54;100.00;100524.22;6261514;22;20015;-91
2022/10/10 00:18:01;;;;;;;9.65;3.08;;;;;;;-146.73;100.00;56421.06;6265139;22;20011;-90
2022/10/10 00:20:26;;;;;;;8.15;3.00;;;;;;;19.90;100.00;100680.72;6262873;22;20021;-90
2022/10/10 00:22:52;;;;;;;10.02;2.80;;;;;;;20.05;100.00;99374.91;6235610;22;20576;-90
2022/10/10 00:25:17;;;;;;;12.20;2.95;;;;;;;21.03;100.00;98511.94;6234653;22;20008;-91
2022/10/10 00:27:43;;;;;;;7.63;2.65;;;;;;;20.67;100.00;97536.22;6234410;22;20094;-91
2022/10/10 00:30:09;;;;;;;11.68;2.92;;;;;;;21.13;100.00;97731.81;6262373;22;20066;-90
2022/10/10 00:32:35;;;;;;;11.43;2.88;;;;;;;18.40;100.00;97886.09;6235716;22;20387;-91
2022/10/10 00:35:01;;;;;;;10.25;2.60;;;;;;;17.20;100.00;97944.09;6259136;22;20099;-91
2022/10/10 00:37:27;;;;;;;10.40;3.08;;;;;;;16.83;100.00;98008.19;6237046;22;20307;-90
2022/10/10 00:39:53;;;;;;;8.50;2.75;;;;;;;16.23;100.00;98005.63;6260014;22;20012;-90
2022/10/10 00:42:18;;;;;;;9.27;2.67;;;;;;;16.12;100.00;98040.31;6235655;22;20492;-90
2022/10/10 00:45:05;;;;;;;8.60;2.53;;;;;;;16.11;100.00;98028.91;6233863;22;20413;-90
2022/10/10 00:47:30;;;;;;;7.95;2.58;;;;;;;16.63;100.00;98023.13;6261577;22;20016;-91
2022/10/10 00:49:56;;;;;;;9.95;2.70;;;;;;;15.56;100.00;98032.06;6234036;22;20336;-91
2022/10/10 00:52:22;;;;;;;7.97;2.67;;;;;;;15.19;100.00;98105.31;6236418;22;20008;-94
2022/10/10 00:54:48;;;;;;;7.20;2.50;;;;;;;17.74;100.00;98173.47;6266313;22;20012;-94
2022/10/10 00:57:14;;;;;;;11.57;3.25;;;;;;;21.64;100.00;97982.19;6241059;22;20046;-94
2022/10/10 00:59:42;;;;;;;10.88;3.55;;;;;;;18.07;100.00;98104.19;6241478;22;20095;-94
2022/10/10 01:02:08;;;;;;;10.15;3.65;;;;;;;20.36;100.00;98006.19;6270383;22;20050;-94
2022/10/10 01:04:41;;;;;;;9.50;3.17;;;;;;;18.03;100.00;98052.50;6240677;22;20008;-95
2022/10/10 01:07:15;;;;;;;10.20;3.92;;;;;;;17.49;100.00;98068.31;6241541;22;20000;-95
2022/10/10 01:09:43;;;;;;;13.10;3.47;;;;;;;19.49;100.00;98060.66;6241217;22;20019;-93
2022/10/10 01:12:24;;;;;;;12.23;4.20;;;;;;;17.22;100.00;98002.81;6241591;22;20061;-94
2022/10/10 01:15:03;;;;;;;12.20;5.78;;;;;;;21.78;100.00;98077.69;6240710;22;20059;-94
2022/10/10 01:17:40;;;;;;;14.57;6.95;;;;;;;20.62;100.00;97922.44;6241841;22;20015;-95
2022/10/10 01:20:30;;;;;;;16.73;8.00;;;;;;;19.74;100.00;98020.41;6241424;22;20014;-94
2022/10/10 01:23:25;;;;;;;18.85;9.38;;;;;;;20.22;100.00;97967.31;6241564;22;20008;-93
2022/10/10 01:26:01;;;;;;;16.00;7.72;;;;;;;17.45;100.00;98076.44;6241474;22;20584;-94
2022/10/10 01:29:09;;;;;;;12.52;6.28;;;;;;;17.56;100.00;98093.47;6240840;22;20003;-93
2022/10/10 01:31:42;;;;;;;7.80;2.90;;;;;;;18.04;100.00;98108.78;6243870;22;20015;-95
2022/10/10 01:34:22;;;;;;;6.05;2.10;;;;;;;18.47;100.00;98113.63;6243116;22;19991;-94
2022/10/10 01:37:18;;;;;;;5.00;1.30;;;;;;;16.64;100.00;98319.69;6245356;22;20089;-95
2022/10/10 01:39:53;;;;;;;6.35;0.90;;;;;;;16.67;100.00;98195.84;6244178;22;20011;-93
2022/10/10 01:42:32;;;;;;;8.20;1.10;;;;;;;18.79;100.00;98105.81;6244403;22;20019;-94
2022/10/10 01:44:58;;;;;;;5.13;0.90;;;;;;;19.89;100.00;98076.91;6244119;22;20113;-94
2022/10/10 01:47:23;;;;;;;5.57;0.85;;;;;;;19.99;100.00;97924.56;6246408;22;20042;-94
2022/10/10 01:49:57;;;;;;;6.97;1.00;;;;;;;17.89;100.00;97865.03;6244700;22;20433;-94
2022/10/10 01:52:25;;;;;;;6.82;1.05;;;;;;;19.31;100.00;97849.25;6243563;22;20020;-95
2022/10/10 01:55:10;;;;;;;8.30;1.30;;;;;;;19.44;100.00;97844.94;6244987;22;20004;-95
2022/10/10 01:57:51;;;;;;;8.30;1.85;;;;;;;18.25;100.00;97835.00;6244690;22;20026;-94
2022/10/10 02:03:11;;;;;;;8.60;1.40;;;;;;;17.33;100.00;97836.28;6234032;23;20032;-94
2022/10/10 02:06:01;;;;;;;10.80;1.60;;;;;;;17.01;100.00;97873.00;6235972;23;20104;-92
2022/10/10 02:08:42;;;;;;;11.82;1.60;;;;;;;16.98;100.00;97870.53;6236366;23;20012;-93
2022/10/10 02:11:09;;;;;;;9.00;1.10;;;;;;;18.03;100.00;97867.81;6236052;23;20016;-96
2022/10/10 02:13:44;;;;;;;11.73;1.30;;;;;;;19.36;100.00;97789.00;6237803;23;20012;-96
2022/10/10 02:16:17;;;;;;;9.38;1.30;;;;;;;17.41;100.00;97788.44;6238039;23;20011;-96
2022/10/10 02:18:46;;;;;;;12.10;1.60;;;;;;;18.96;100.00;97799.31;6238379;23;20014;-95
2022/10/10 02:21:14;;;;;;;15.60;1.95;;;;;;;20.80;100.00;97772.06;6239561;23;20012;-95
2022/10/10 02:23:42;;;;;;;8.85;1.48;;;;;;;19.45;100.00;97771.72;6237776;23;20004;-96
2022/10/10 02:26:11;;;;;;;8.63;1.42;;;;;;;21.84;100.00;97749.94;6240096;23;20004;-95
2022/10/10 02:28:43;;;;;;;12.00;1.95;;;;;;;18.77;100.00;97739.63;6238150;23;20004;-95
2022/10/10 02:31:18;;;;;;;11.00;1.45;;;;;;;20.12;100.00;97747.31;6239040;23;20011;-95
2022/10/10 02:33:46;;;;;;;8.90;1.73;;;;;;;19.91;100.00;97746.91;6241872;23;20346;-95
2022/10/10 02:36:15;;;;;;;9.00;1.52;;;;;;;19.73;100.00;97754.16;6244093;23;20007;-96
2022/10/10 02:38:41;;;;;;;12.75;1.70;;;;;;;19.13;100.00;97761.31;6239480;23;20395;-95
2022/10/10 02:41:13;;;;;;;8.70;1.20;;;;;;;15.55;100.00;97795.63;6237916;23;20018;-96
2022/10/10 02:43:39;;;;;;;7.43;1.20;;;;;;;15.84;100.00;97789.91;6237510;23;20094;-96
2022/10/10 02:46:09;;;;;;;9.35;1.20;;;;;;;15.52;100.00;97831.63;6238824;23;20008;-94
2022/10/10 02:48:35;;;;;;;9.77;1.63;;;;;;;16.02;100.00;97821.56;6238858;23;20031;-95
2022/10/10 02:51:00;;;;;;;13.88;1.77;;;;;;;15.16;100.00;97828.81;6265158;22;20342;-95
2022/10/10 02:53:26;;;;;;;11.02;1.73;;;;;;;17.18;100.00;97850.25;6240479;23;20069;-93
2022/10/10 02:55:51;;;;;;;13.18;2.10;;;;;;;17.09;100.00;97854.19;6240046;23;20087;-96
2022/10/10 02:58:17;;;;;;;9.65;1.88;;;;;;;17.15;100.00;97824.91;6240141;23;20012;-94
2022/10/10 03:00:42;;;;;;;11.18;1.55;;;;;;;17.86;100.00;97825.66;6240556;23;20598;-96
2022/10/10 03:03:08;;;;;;;14.32;1.80;;;;;;;15.41;100.00;97843.53;6238894;23;20040;-94
2022/10/10 03:05:34;;;;;;;8.52;1.40;;;;;;;17.70;100.00;97847.56;6237883;23;20018;-94
2022/10/10 03:07:59;;;;;;;12.98;1.55;;;;;;;19.59;100.00;97813.19;6213663;23;20083;-94
2022/10/10 03:10:25;;;;;;;15.93;1.55;;;;;;;20.70;100.00;97814.22;6239653;23;20418;-96
2022/10/10 03:12:50;;;;;;;8.90;1.40;;;;;;;18.98;100.00;97807.16;6238910;23;20008;-96
2022/10/10 03:15:15;;;;;;;16.42;1.77;;;;;;;19.33;100.00;97806.84;6236925;23;20004;-95
2022/10/10 03:17:41;;;;;;;11.10;2.00;;;;;;;19.20;100.00;97812.03;6263270;22;20390;-94
2022/10/10 03:20:07;;;;;;;8.90;1.40;;;;;;;19.81;100.00;97801.34;6238235;23;20715;-95
2022/10/10 03:22:33;;;;;;;9.77;1.50;;;;;;;18.23;100.00;97842.13;6264157;22;20043;-95
2022/10/10 03:25:00;;;;;;;15.05;1.92;;;;;;;19.49;100.00;97817.38;6238653;23;20082;-95
2022/10/10 03:27:26;;;;;;;13.18;1.38;;;;;;;20.77;100.00;97834.06;6238101;23;20091;-96
2022/10/10 03:29:51;;;;;;;12.90;1.40;;;;;;;15.69;100.00;97870.28;6237383;23;20031;-95
2022/10/10 03:32:17;;;;;;;11.15;1.63;;;;;;;17.99;100.00;97844.31;6237682;23;20008;-94
2022/10/10 03:34:42;;;;;;;13.40;2.90;;;;;;;18.46;100.00;97845.31;6238438;23;20126;-96
2022/10/10 03:37:08;;;;;;;8.77;1.17;;;;;;;18.90;100.00;97857.78;6238167;23;20430;-94
2022/10/10 03:39:34;;;;;;;11.48;1.83;;;;;;;18.74;100.00;97847.22;6237164;23;20024;-95
2022/10/10 03:41:59;;;;;;;15.43;2.20;;;;;;;16.98;100.00;97891.59;6236932;23;20027;-95
2022/10/10 03:44:25;;;;;;;11.45;2.00;;;;;;;18.13;100.00;97888.44;6237916;23;20083;-94
2022/10/10 03:46:50;;;;;;;12.73;1.50;;;;;;;17.72;100.00;97887.88;6236762;23;20068;-94
2022/10/10 03:49:17;;;;;;;12.13;1.80;;;;;;;18.63;100.00;97887.44;6238783;23;20011;-95
2022/10/10 03:51:43;;;;;;;9.48;1.50;;;;;;;18.30;100.00;97864.63;6239296;23;20157;-94
2022/10/10 03:54:08;;;;;;;10.77;1.40;;;;;;;16.86;100.00;97906.19;6236357;23;20039;-94
2022/10/10 03:56:34;;;;;;;13.63;1.88;;;;;;;17.76;100.00;97907.03;6238185;23;20457;-95
2022/10/10 03:59:02;;;;;;;11.00;1.90;;;;;;;17.37;100.00;97916.91;6239132;23;20016;-95
2022/10/10 04:01:28;;;;;;;16.23;1.83;;;;;;;18.39;100.00;97908.97;6226123;23;20079;-94
2022/10/10 04:03:54;;;;;;;16.92;2.08;;;;;;;18.79;100.00;97899.78;6207988;23;20063;-94
2022/10/10 04:06:19;;;;;;;17.73;2.15;;;;;;;18.51;100.00;97917.16;6207664;23;20008;-94
2022/10/10 04:08:45;;;;;;;17.98;2.33;;;;;;;18.55;100.00;97918.69;6207668;23;20005;-95
2022/10/10 04:11:10;;;;;;;16.77;2.53;;;;;;;17.99;100.00;97940.13;6210189;23;20008;-95
2022/10/10 04:13:36;;;;;;;15.30;2.13;;;;;;;17.44;100.00;97937.66;6206882;23;20016;-94
2022/10/10 04:16:01;;;;;;;14.57;2.95;;;;;;;19.41;100.00;97926.22;6182887;23;20506;-95
2022/10/10 04:18:27;;;;;;;12.52;1.92;;;;;;;19.39;100.00;97931.59;6209744;23;20000;-94
2022/10/10 04:20:52;;;;;;;14.88;1.92;;;;;;;19.30;100.00;97924.19;6183062;23;20001;-94
2022/10/10 04:23:18;;;;;;;13.20;1.90;;;;;;;17.76;100.00;97928.13;6184370;23;20070;-94
2022/10/10 04:25:44;;;;;;;14.60;2.35;;;;;;;18.08;100.00;97946.75;6183594;23;20077;-95
2022/10/10 04:28:14;;;;;;;13.07;2.05;;;;;;;17.93;100.00;97935.19;6183769;23;20012;-94
2022/10/10 04:30:42;;;;;;;10.95;1.98;;;;;;;20.25;100.00;97932.69;6183301;23;20008;-94
2022/10/10 04:33:08;;;;;;;13.07;2.35;;;;;;;17.23;100.00;97966.81;6183609;23;20099;-94
2022/10/10 04:35:33;;;;;;;13.02;2.35;;;;;;;17.99;100.00;97958.59;6183534;23;20008;-94
2022/10/10 04:37:59;;;;;;;16.55;2.05;;;;;;;19.11;100.00;97948.22;6211409;23;20008;-96
2022/10/10 04:40:24;;;;;;;15.55;2.15;;;;;;;19.13;100.00;97929.63;6211724;23;20015;-95
2022/10/10 04:42:50;;;;;;;12.45;2.33;;;;;;;19.59;100.00;97961.31;6212633;23;20055;-95
2022/10/10 04:45:15;;;;;;;12.77;2.03;;;;;;;18.75;100.00;97951.94;6213773;23;20016;-95
2022/10/10 04:47:41;;;;;;;15.40;2.00;;;;;;;20.41;100.00;97956.44;6188108;23;20080;-95
2022/10/10 04:50:06;;;;;;;13.35;1.85;;;;;;;18.68;100.00;97956.72;6186964;23;20008;-94
2022/10/10 04:52:32;;;;;;;13.32;2.00;;;;;;;18.42;100.00;97981.88;6187822;23;20016;-95
2022/10/10 04:54:57;;;;;;;11.95;2.03;;;;;;;19.40;100.00;97959.75;6186940;23;20015;-95
2022/10/10 04:57:23;;;;;;;13.07;2.13;;;;;;;19.40;100.00;97970.34;6213410;23;20439;-96
2022/10/10 04:59:48;;;;;;;12.60;2.22;;;;;;;17.27;100.00;97985.94;6188031;23;20443;-96
2022/10/10 05:02:24;;;;;;;17.45;2.65;;;;;;;16.93;100.00;98000.75;6226658;23;20851;-96
2022/10/10 05:04:49;;;;;;;14.18;2.25;;;;;;;18.02;100.00;97981.34;6243073;23;20062;-96
2022/10/10 05:07:14;;;;;;;46.30;3.58;;;;;;;18.59;100.00;97983.59;6242231;23;20008;-95
2022/10/10 05:09:40;;;;;;;13.50;2.50;;;;;;;18.16;100.00;97978.84;6242241;23;20739;-96
2022/10/10 05:12:05;;;;;;;11.30;2.22;;;;;;;20.28;100.00;97974.91;6241379;23;20007;-94
2022/10/10 05:14:31;;;;;;;14.02;2.72;;;;;;;20.15;100.00;97979.22;6241408;23;20019;-96
2022/10/10 05:16:56;;;;;;;13.63;2.38;;;;;;;18.82;100.00;97966.50;6244671;22;20004;-96
2022/10/10 05:19:26;;;;;;;17.27;2.22;;;;;;;17.63;100.00;97998.25;6243551;22;20035;-95
2022/10/10 05:21:56;;;;;;;13.77;2.55;;;;;;;19.63;100.00;97976.06;6270902;22;19995;-94
2022/10/10 05:24:22;;;;;;;15.73;2.67;;;;;;;19.43;100.00;97980.72;6245055;22;20012;-96
2022/10/10 05:26:47;;;;;;;17.45;2.30;;;;;;;19.30;100.00;97982.34;6245809;22;20038;-95
2022/10/10 05:29:12;;;;;;;14.40;2.17;;;;;;;19.29;100.00;97993.91;6270986;22;20083;-94
2022/10/10 05:31:41;;;;;;;12.52;2.40;;;;;;;18.41;100.00;98001.28;6245593;22;20023;-95
2022/10/10 05:34:12;;;;;;;20.73;4.90;;;;;;;19.52;100.00;97999.66;6243429;22;20031;-94
2022/10/10 05:36:40;;;;;;;19.00;2.00;;;;;;;17.96;100.00;98024.72;6245407;22;20453;-96
2022/10/10 05:39:05;;;;;;;12.55;1.90;;;;;;;19.04;100.00;98013.75;6243613;22;20004;-95
2022/10/10 05:41:32;;;;;;;13.27;1.98;;;;;;;18.11;100.00;98023.09;6247507;22;20014;-96
2022/10/10 05:43:57;;;;;;;17.13;2.05;;;;;;;18.61;100.00;98024.00;6247102;22;20062;-96
2022/10/10 05:46:25;;;;;;;13.85;1.98;;;;;;;18.80;100.00;98023.00;6248470;22;20061;-96
2022/10/10 05:48:52;;;;;;;11.32;2.22;;;;;;;18.39;100.00;98013.72;6247979;22;20012;-95
2022/10/10 05:51:18;;;;;;;17.35;2.10;;;;;;;19.22;100.00;98025.09;6249126;22;20031;-96
2022/10/10 05:53:43;;;;;;;18.50;2.13;;;;;;;18.63;100.00;98016.84;6250619;22;20011;-96
2022/10/10 05:56:10;;;;;;;12.48;1.98;;;;;;;17.61;100.00;98018.56;6249695;22;20008;-96
2022/10/10 05:58:37;;;;;;;11.70;2.28;;;;;;;16.60;100.00;98051.34;6276646;22;20012;-96
2022/10/10 06:01:04;;;;;;;11.52;2.20;;;;;;;17.30;100.00;98043.75;6246380;23;20030;-95
2022/10/10 06:03:31;;;;;;;14.32;2.22;;;;;;;17.51;100.00;98052.44;6247147;23;20024;-96
2022/10/10 06:05:57;;;;;;;26.35;2.70;;;;;;;17.44;100.00;98058.91;6246955;23;20004;-96
2022/10/10 06:08:24;;;;;;;12.90;2.00;;;;;;;16.69;100.00;98051.78;6247247;23;20008;-96
2022/10/10 06:10:50;;;;;;;20.52;2.33;;;;;;;16.72;100.00;98064.81;6246119;23;20012;-96
2022/10/10 06:13:17;;;;;;;15.77;2.15;;;;;;;17.16;100.00;98073.41;6236715;23;20011;-95
2022/10/10 06:15:42;;;;;;;15.10;1.80;;;;;;;16.59;100.00;98082.09;6236657;23;20087;-95
2022/10/10 06:18:35;;;;;;;14.45;2.28;;;;;;;16.86;100.00;98080.00;6241999;23;20402;-96
2022/10/10 06:21:02;;;;;;;15.73;2.22;;;;;;;18.72;100.00;98063.91;6245540;23;20008;-96
2022/10/10 06:23:27;;;;;;;9.35;2.10;;;;;;;18.12;100.00;98076.72;6246680;23;20434;-95
2022/10/10 06:25:54;;;;;;;26.38;2.70;;;;;;;17.70;100.00;98062.91;6243660;23;20016;-96
2022/10/10 06:28:20;;;;;;;11.75;2.13;;;;;;;19.20;100.00;98060.50;6247139;23;20004;-96
2022/10/10 06:30:47;;;;;;;15.43;2.78;;;;;;;19.71;100.00;98066.41;6238869;23;20010;-96
2022/10/10 06:33:14;;;;;;;14.48;2.05;;;;;;;20.15;100.00;98056.00;6242066;23;19996;-95
2022/10/10 06:35:43;;;;;;;13.10;1.77;;;;;;;18.27;100.00;98081.19;6243368;23;20037;-96
2022/10/10 06:38:10;;;;;;;13.77;2.25;;;;;;;18.33;100.00;98096.75;6243856;23;20008;-96
2022/10/10 06:40:38;;;;;;;11.98;1.90;;;;;;;17.15;100.00;98124.41;6249327;23;20012;-96
2022/10/10 06:43:10;;;;;;;11.60;1.80;;;;;;;16.93;100.00;98133.28;6246724;23;20039;-96
2022/10/10 06:45:40;;;;;;;17.17;2.08;;;;;;;15.66;100.00;98138.53;6245043;23;20008;-95
2022/10/10 06:48:06;;;;;;;13.35;1.77;;;;;;;18.37;100.00;98137.91;6243093;23;20008;-96
2022/10/10 06:50:31;;;;;;;15.35;2.53;;;;;;;19.22;100.00;98117.63;6245287;23;20484;-96
2022/10/10 06:52:56;;;;;;;11.35;1.85;;;;;;;15.30;100.00;98136.44;6246703;23;20000;-96
2022/10/10 06:55:22;;;;;;;17.90;2.22;;;;;;;16.35;100.00;98137.53;6242360;23;20105;-96
2022/10/10 06:57:47;;;;;;;17.95;2.20;;;;;;;19.07;100.00;98111.38;6246556;23;20101;-96
2022/10/10 07:00:13;;;;;;;17.55;2.50;;;;;;;41.29;46.95;98137.03;6251050;23;20011;-96
2022/10/10 07:02:39;;;;;;;17.38;1.90;;;;;;;23.34;87.30;98111.41;6245807;22;20074;-96
2022/10/10 07:05:16;;;;;;;12.75;2.05;;;;;;;17.77;100.00;98139.97;6249295;23;20023;-96
2022/10/10 07:07:50;;;;;;;20.23;2.50;;;;;;;18.66;100.00;98150.53;6254587;23;20015;-96
2022/10/10 07:10:31;;;;;;;15.30;2.40;;;;;;;32.62;62.34;98139.41;6279092;22;20020;-96
2022/10/10 07:13:18;;;;;;;13.32;2.20;;;;;;;19.52;100.00;98139.81;6251716;23;20083;-96
2022/10/10 07:15:44;;;;;;;16.45;2.30;;;;;;;18.47;100.00;98171.72;6256878;23;19988;-96
2022/10/10 07:18:10;;;;;;;13.95;2.05;;;;;;;19.67;100.00;98164.56;6248292;23;20008;-96
2022/10/10 07:20:36;;;;;;;11.93;2.10;;;;;;;20.45;100.00;98167.19;6246923;23;20090;-96
2022/10/10 07:23:03;;;;;;;14.98;2.10;;;;;;;21.16;100.00;98162.97;6243466;23;20000;-96
2022/10/10 07:25:29;;;;;;;14.93;2.05;;;;;;;19.83;100.00;98154.00;6247158;23;20004;-96
2022/10/10 07:27:58;;;;;;;17.63;1.92;;;;;;;20.55;100.00;98172.78;6245622;23;20048;-96
2022/10/10 07:30:24;;;;;;;14.90;2.28;;;;;;;14.96;100.00;98198.09;6251386;23;20083;-96
2022/10/10 07:33:07;;;;;;;12.20;1.95;;;;;;;15.45;100.00;98199.81;6247383;23;20008;-96
2022/10/10 07:35:44;;;;;;;15.45;2.40;;;;;;;15.25;100.00;98225.06;6221538;23;20014;-96
2022/10/10 07:38:11;;;;;;;11.95;1.65;;;;;;;16.33;100.00;98215.66;6240239;23;20000;-96
2022/10/10 07:40:40;;;;;;;10.38;1.50;;;;;;;18.38;100.00;98210.00;6253797;23;20054;-96
2022/10/10 07:43:10;;;;;;;14.48;2.08;;;;;;;17.96;100.00;98217.31;6244657;22;20012;-96
2022/10/10 07:45:36;;;;;;;16.83;2.15;;;;;;;20.02;100.00;98182.91;6256894;23;20027;-96
2022/10/10 07:48:05;;;;;;;12.43;2.20;;;;;;;15.69;100.00;98234.81;6246875;23;20422;-96
2022/10/10 07:50:30;;;;;;;18.08;2.17;;;;;;;15.57;100.00;98232.66;6223422;23;20713;-96
2022/10/10 07:53:05;;;;;;;13.68;2.47;;;;;;;14.92;100.00;98241.13;6250602;23;20030;-95
2022/10/10 07:55:32;;;;;;;11.27;2.03;;;;;;;15.67;100.00;98245.41;6253711;23;20015;-96
2022/10/10 07:57:58;;;;;;;21.35;2.80;;;;;;;15.64;100.00;98270.94;6257463;23;20012;-96
2022/10/10 08:00:26;;;;;;;14.93;2.90;;;;;;;15.49;100.00;98283.75;6250345;23;20043;-96
2022/10/10 08:02:52;;;;;;;15.48;2.35;;;;;;;15.57;100.00;98275.56;6252962;23;20467;-96
2022/10/10 08:05:20;;;;;;;12.93;1.92;;;;;;;16.41;100.00;98294.31;6249339;23;20072;-96
2022/10/10 08:07:53;;;;;;;13.50;1.92;;;;;;;16.21;100.00;98277.53;6248346;23;20008;-96
2022/10/10 08:10:22;;;;;;;11.75;1.60;;;;;;;26.05;100.00;98263.38;6248685;23;20087;-96
2022/10/10 08:13:17;;;;;;;17.10;2.47;;;;;;;19.95;100.00;98275.88;6255175;22;20386;-96
2022/10/10 08:15:44;;;;;;;17.55;2.10;;;;;;;18.95;100.00;98269.72;6234578;23;20016;-96
2022/10/10 08:18:11;;;;;;;17.45;2.20;;;;;;;20.08;100.00;98280.50;6255468;23;20004;-96
2022/10/10 08:20:37;;;;;;;19.90;2.45;;;;;;;20.65;100.00;98282.56;6251102;23;20004;-96
2022/10/10 08:23:02;;;;;;;17.45;2.05;;;;;;;18.07;100.00;98291.53;6254165;23;20042;-96
2022/10/10 08:25:31;;;;;;;19.38;2.35;;;;;;;18.20;100.00;98285.69;6252620;23;20089;-96
2022/10/10 08:27:57;;;;;;;12.95;2.45;;;;;;;18.85;100.00;98298.38;6258585;23;20008;-96
2022/10/10 08:30:28;;;;;;;15.02;1.80;;;;;;;20.66;100.00;98294.88;6258025;23;20430;-96
2022/10/10 08:32:54;;;;;;;16.55;2.38;;;;;;;19.48;100.00;98312.81;6254912;23;20004;-96
2022/10/10 08:35:19;;;;;;;15.15;2.03;;;;;;;19.82;100.00;98311.03;6253748;23;20016;-96
2022/10/10 08:37:45;;;;;;;18.50;2.25;;;;;;;24.38;100.00;98301.88;6254378;23;20014;-96
2022/10/10 08:40:18;;;;;;;14.10;1.90;;;;;;;20.28;100.00;98314.66;6253146;22;20007;-96
2022/10/10 08:42:51;;;;;;;15.30;2.22;;;;;;;19.43;100.00;98315.72;6255521;23;20087;-96
2022/10/10 08:45:26;;;;;;;12.52;1.98;;;;;;;19.87;100.00;98325.72;6258659;23;20018;-96
2022/10/10 08:48:04;;;;;;;11.10;2.00;;;;;;;19.90;100.00;98312.34;6261729;22;20060;-96
2022/10/10 08:53:52;;;;;;;12.40;2.33;;;;;;;20.99;100.00;98328.34;6249471;22;20015;-96
2022/10/10 08:56:33;;;;;;;13.18;2.17;;;;;;;20.88;100.00;98313.06;6250295;23;20007;-96
2022/10/10 08:59:26;;;;;;;16.65;2.20;;;;;;;21.32;100.00;98329.94;6252554;23;20000;-96
2022/10/10 09:02:03;;;;;;;11.18;1.80;;;;;;;19.74;100.00;98335.25;6248141;23;20031;-96
2022/10/10 09:04:32;;;;;;;17.50;2.45;;;;;;;21.66;100.00;98338.56;6250278;23;20050;-96
2022/10/10 09:07:25;;;;;;;14.77;2.08;;;;;;;19.72;100.00;98352.97;6246832;23;20036;-96
2022/10/10 09:09:54;;;;;;;15.18;2.20;;;;;;;20.72;100.00;98347.53;6248137;23;20065;-96
2022/10/10 09:13:02;;;;;;;13.60;2.17;;;;;;;20.16;100.00;98359.50;6250194;23;20378;-96
2022/10/10 09:15:42;;;;;;;16.42;2.50;;;;;;;20.79;100.00;98366.59;6190379;23;20025;-96
2022/10/10 09:18:42;;;;;;;10.95;2.22;;;;;;;22.15;100.00;98364.69;6194246;23;20490;-96
2022/10/10 09:21:19;;;;;;;12.05;2.15;;;;;;;24.08;100.00;98363.53;6191284;23;20012;-96
2022/10/10 09:24:14;;;;;;;14.57;2.40;;;;;;;23.55;100.00;98377.81;6194075;23;20016;-96
2022/10/10 09:26:49;;;;;;;18.67;2.97;;;;;;;23.74;100.00;98382.72;6193124;23;20012;-96
2022/10/10 09:29:21;;;;;;;13.15;2.33;;;;;;;23.92;100.00;98385.94;6185305;23;20067;-96
2022/10/10 09:31:55;;;;;;;11.05;1.95;;;;;;;22.95;100.00;98384.44;6188399;23;20519;-96
2022/10/10 09:34:46;;;;;;;13.00;2.38;;;;;;;24.09;100.00;98402.53;6182533;23;20083;-96
2022/10/10 09:37:29;;;;;;;11.82;2.08;;;;;;;25.07;90.77;98388.41;6213160;23;20027;-96
2022/10/10 09:40:00;;;;;;;12.98;1.98;;;;;;;27.56;85.72;98401.75;6191079;23;20047;-96
2022/10/10 09:42:49;;;;;;;12.32;2.10;;;;;;;21.58;100.00;98433.69;6191239;23;20064;-96
2022/10/10 09:45:19;;;;;;;14.55;2.50;;;;;;;25.03;94.05;98422.50;6189323;23;20019;-96
2022/10/10 09:47:49;;;;;;;10.82;2.20;;;;;;;25.09;90.00;98419.34;6188464;23;20016;-96
2022/10/10 09:50:15;;;;;;;11.68;1.88;;;;;;;27.01;82.88;98432.13;6189673;23;20013;-96
2022/10/10 09:52:43;;;;;;;18.45;2.20;;;;;;;26.00;89.01;98441.00;6223925;23;20008;-96
2022/10/10 09:55:39;;;;;;;26.85;3.03;;;;;;;28.12;74.21;98447.94;6243323;23;20074;-96
2022/10/10 09:58:20;;;;;;;12.88;1.98;;;;;;;27.63;75.30;98447.59;6234990;23;20016;-96
2022/10/10 10:00:46;;;;;;;14.35;2.20;;;;;;;24.96;86.72;98446.09;6243259;22;20046;-96
2022/10/10 10:03:13;;;;;;;12.98;2.00;;;;;;;24.02;99.22;98444.75;6280827;22;20000;-96
2022/10/10 10:06:14;;;;;;;15.50;2.78;;;;;;;25.75;91.02;98460.75;6261106;22;20057;-96
2022/10/10 10:08:53;;;;;;;14.40;2.13;;;;;;;24.63;93.00;98460.06;6263691;22;20008;-96
2022/10/10 10:11:47;;;;;;;16.33;2.47;;;;;;;26.33;85.14;98452.75;6206092;22;20098;-96
2022/10/10 10:14:34;;;;;;;13.18;1.90;;;;;;;24.12;91.87;98463.59;6262347;22;20031;-96
2022/10/10 10:17:17;;;;;;;11.45;1.75;;;;;;;22.49;100.00;98449.41;6284512;22;20019;-96
2022/10/10 10:20:00;;;;;;;13.65;1.92;;;;;;;24.31;94.17;98455.19;6261243;22;20011;-96
2022/10/10 10:22:33;;;;;;;10.38;1.65;;;;;;;22.62;100.00;98473.44;6262694;22;20007;-96
2022/10/10 10:25:34;;;;;;;12.90;1.90;;;;;;;24.57;93.00;98458.66;6260246;22;20007;-96
2022/10/10 10:28:19;;;;;;;14.35;2.22;;;;;;;23.54;100.00;98473.75;6263449;22;20030;-96
2022/10/10 10:30:46;;;;;;;14.00;2.05;;;;;;;23.72;95.44;98453.88;6261111;22;20011;-96
2022/10/10 10:33:35;;;;;;;10.25;1.60;;;;;;;25.87;87.87;98478.53;6282798;22;20031;-95
2022/10/10 10:36:25;;;;;;;12.40;2.08;;;;;;;26.01;85.56;98483.69;6253543;22;20015;-96
2022/10/10 10:39:10;;;;;;;11.38;1.60;;;;;;;24.30;91.46;98486.31;6253229;22;20007;-96
2022/10/10 10:41:50;;;;;;;13.77;2.13;;;;;;;24.80;87.91;98489.06;6254859;22;20018;-96
2022/10/10 10:44:31;;;;;;;9.63;1.60;;;;;;;22.48;90.42;98493.75;6254007;22;20000;-96
2022/10/10 10:47:23;;;;;;;13.50;1.83;;;;;;;22.58;95.46;98502.00;6251952;22;20015;-96
2022/10/10 10:50:07;;;;;;;7.43;1.50;;;;;;;24.13;89.82;98514.09;6253411;22;19996;-96
2022/10/10 10:53:00;;;;;;;14.50;1.98;;;;;;;23.57;89.02;98511.66;6253443;22;20010;-96
2022/10/10 10:55:43;;;;;;;14.15;1.70;;;;;;;23.26;88.30;98516.34;6252384;22;20102;-95
2022/10/10 10:58:25;;;;;;;10.27;1.38;;;;;;;23.47;90.04;98514.06;6255292;22;20035;-96
2022/10/10 11:00:54;;;;;;;12.25;1.35;;;;;;;23.58;91.47;98515.19;6255729;22;20014;-96
2022/10/10 11:03:52;;;;;;;10.95;1.58;;;;;;;22.48;93.57;98528.28;6253719;22;20145;-96
2022/10/10 11:06:36;;;;;;;9.23;1.60;;;;;;;21.17;100.00;98545.66;6254974;22;20006;-96
2022/10/10 11:09:13;;;;;;;8.18;1.77;;;;;;;21.61;98.34;98527.25;6254312;22;20008;-96
2022/10/10 11:12:02;;;;;;;13.68;1.70;;;;;;;21.46;97.40;98530.72;6254471;22;20003;-96
2022/10/10 11:14:35;;;;;;;7.72;1.30;;;;;;;21.83;94.57;98526.81;6257312;22;20012;-96
2022/10/10 11:17:13;;;;;;;;;;;;;;;22.11;92.25;98530.47;6256498;22;20003;-95
2022/10/10 11:19:55;;;;;;;6.57;1.02;;;;;;;22.36;88.24;98520.22;6276947;22;19970;-96
2022/10/10 11:22:27;;;;;;;8.90;1.20;;;;;;;23.00;83.55;98520.66;6250129;22;20008;-95
2022/10/10 11:25:06;;;;;;;7.15;1.30;;;;;;;21.29;87.91;98531.69;6249838;22;20064;-96
2022/10/10 11:27:40;;;;;;;12.70;1.73;;;;;;;23.92;75.85;98542.22;6255547;22;20004;-96
2022/10/10 11:30:17;;;;;;;11.05;1.70;;;;;;;27.04;62.90;98557.69;6233204;22;20016;-96
2022/10/10 11:33:02;;;;;;;9.45;1.30;;;;;;;26.55;60.48;98575.75;6255604;22;20507;-96
2022/10/10 11:35:34;;;;;;;13.25;1.65;;;;;;;28.78;54.34;98587.94;6253542;22;20079;-96
2022/10/10 11:38:12;;;;;;;12.02;1.60;;;;;;;30.53;53.09;98587.50;6255142;22;20007;-96
2022/10/10 11:40:59;;;;;;;9.32;1.42;;;;;;;27.96;59.94;98587.75;6255104;22;20015;-96
2022/10/10 11:44:04;;;;;;;13.23;1.90;;;;;;;25.34;73.48;98585.72;6252014;22;20082;-96
2022/10/10 11:46:39;;;;;;;12.82;1.85;;;;;;;25.00;70.97;98604.13;6249767;22;20094;-96
2022/10/10 11:49:13;;;;;;;10.93;1.80;;;;;;;23.84;74.88;98599.50;6257351;22;20015;-95